Time;durP1;ratioP1;P1;durP2;ratioP2;P2;SDS_P1;SDS_P2;PMS_P1;PMS_P2;Temp;Humidity;BMP_temperature;BMP_pressure;BME280_temperature;BME280_humidity;BME280_pressure;Samples;Min_cycle;Max_cycle;Signal;HPM_P1;HPM_P2
2023/02/03 00:01:40;;;;;;;;;;;;;;;0.14;100.00;97302.75;110139;1245;59670;-70
2023/02/03 00:04:09;;;;;;;;;;;;;;;0.18;100.00;97306.73;110195;1245;59595;-70
2023/02/03 00:06:40;;;;;;;;;;;;;;;0.18;100.00;97312.39;110105;1243;71225;-70
2023/02/03 00:09:09;;;;;;;;;;;;;;;0.18;100.00;97316.31;110117;1245;69554;-70
2023/02/03 00:11:39;;;;;;;;;;;;;;;0.19;100.00;97320.40;110138;1241;68729;-70
2023/02/03 00:14:08;;;;;;;;;;;;;;;0.17;100.00;97322.17;110185;1241;59732;-70
2023/02/03 00:16:38;;;;;;;;;;;;;;;0.17;100.00;97323.88;110183;1243;59664;-70
2023/02/03 00:19:07;;;;;;;;;;;;;;;0.19;100.00;97330.36;110200;1243;71955;-70
2023/02/03 00:21:37;;;;;;;;;;;;;;;0.16;100.00;97332.67;110127;1244;68571;-70
2023/02/03 00:24:07;;;;;;;;;;;;;;;0.12;100.00;97340.16;110145;1246;69290;-70
2023/02/03 00:26:40;;;;;;;;;;;;;;;0.14;100.00;97342.17;110172;1246;59673;-70
2023/02/03 00:29:09;;;;;;;;;;;;;;;0.13;100.00;97344.44;110115;1245;59702;-70
2023/02/03 00:31:38;;;;;;;;;;;;;;;0.14;100.00;97344.91;110160;1244;71396;-70
2023/02/03 00:34:08;;;;;;;;;;;;;;;0.13;100.00;97347.86;110124;1245;68728;-70
2023/02/03 00:36:37;;;;;;;;;;;;;;;0.09;100.00;97345.58;110120;1245;69182;-69
2023/02/03 00:39:06;;;;;;;;;;;;;;;0.09;100.00;97344.05;110116;1245;59699;-70
2023/02/03 00:41:35;;;;;;;;;;;;;;;0.10;100.00;97342.13;110128;1244;59695;-70
2023/02/03 00:44:05;;;;;;;;;;;;;;;0.09;100.00;97346.63;110167;1245;71391;-70
2023/02/03 00:46:35;;;;;;;;;;;;;;;0.08;100.00;97348.52;110115;1244;68308;-70
2023/02/03 00:49:05;;;;;;;;;;;;;;;0.05;100.00;97355.48;110156;1241;69578;-70
2023/02/03 00:51:35;;;;;;;;;;;;;;;0.03;100.00;97351.79;110156;1241;59693;-70
2023/02/03 00:54:04;;;;;;;;;;;;;;;0.05;100.00;97355.14;110170;1244;60100;-70
2023/02/03 00:56:33;;;;;;;;;;;;;;;0.04;100.00;97354.30;110198;1241;71385;-70
2023/02/03 00:59:02;;;;;;;;;;;;;;;0.04;100.00;97353.62;110214;1241;68372;-70
2023/02/03 01:01:35;;;;;;;;;;;;;;;0.05;100.00;97364.91;110102;1241;68304;-70
2023/02/03 01:04:06;;;;;;;;;;;;;;;0.06;100.00;97366.61;110123;1244;59666;-70
2023/02/03 01:06:35;;;;;;;;;;;;;;;0.07;100.00;97366.05;110163;1245;59667;-70
2023/02/03 01:09:06;;;;;;;;;;;;;;;0.09;100.00;97365.97;110086;1244;71464;-70
2023/02/03 01:11:36;;;;;;;;;;;;;;;0.05;100.00;97363.53;110099;1245;69208;-70
2023/02/03 01:14:05;;;;;;;;;;;;;;;0.05;100.00;97356.85;110050;1243;68759;-70
2023/02/03 01:16:37;;;;;;;;;;;;;;;0.06;100.00;97358.02;110176;1244;59731;-70
2023/02/03 01:19:07;;;;;;;;;;;;;;;0.03;100.00;97362.90;110140;1242;59736;-69
2023/02/03 01:21:37;;;;;;;;;;;;;;;0.01;100.00;97367.27;110121;1242;70653;-69
2023/02/03 01:24:08;;;;;;;;;;;;;;;-0.01;100.00;97369.35;110079;1244;69858;-70
2023/02/03 01:26:39;;;;;;;;;;;;;;;-0.02;100.00;97373.85;110140;1243;69129;-70
2023/02/03 01:29:10;;;;;;;;;;;;;;;-0.03;100.00;97375.26;110041;1244;59743;-70
2023/02/03 01:31:41;;;;;;;;;;;;;;;-0.03;100.00;97374.75;110223;1244;59675;-70
2023/02/03 01:34:11;;;;;;;;;;;;;;;-0.03;100.00;97367.73;110204;1244;71787;-70
2023/02/03 01:36:41;;;;;;;;;;;;;;;-0.05;100.00;97366.24;110168;1245;69280;-71
2023/02/03 01:39:11;;;;;;;;;;;;;;;-0.08;100.00;97372.17;110294;1245;69311;-70
2023/02/03 01:41:41;;;;;;;;;;;;;;;-0.10;100.00;97378.23;110168;1244;59729;-70
2023/02/03 01:44:32;;;;;;;;;;;;;;;-0.16;100.00;97384.23;110187;1245;59636;-70
2023/02/03 01:47:03;;;;;;;;;;;;;;;-0.18;100.00;97383.80;110197;1244;70639;-70
2023/02/03 01:49:35;;;;;;;;;;;;;;;-0.24;100.00;97383.45;110155;1245;69197;-71
2023/02/03 01:52:06;;;;;;;;;;;;;;;-0.33;100.00;97385.59;110170;1243;68327;-70
2023/02/03 01:54:39;;;;;;;;;;;;;;;-0.38;100.00;97391.08;110170;1243;59712;-71
2023/02/03 01:57:18;;;;;;;;;;;;;;;-0.42;100.00;97394.06;110147;1242;59687;-70
2023/02/03 01:59:48;;;;;;;;;;;;;;;-0.48;100.00;97393.73;110127;1247;71213;-70
2023/02/03 02:02:19;;;;;;;;;;;;;;;-0.55;99.96;97396.16;110205;1244;68448;-70
2023/02/03 02:04:52;;;;;;;;;;;;;;;-0.55;99.99;97399.77;110127;1244;69098;-71
2023/02/03 02:07:22;;;;;;;;;;;;;;;-0.57;100.00;97405.30;110076;1242;59765;-71
2023/02/03 02:09:53;;;;;;;;;;;;;;;-0.59;100.00;97405.88;110072;1244;60163;-71
2023/02/03 02:12:22;;;;;;;;;;;;;;;-0.57;100.00;97407.02;110123;1244;71238;-71
2023/02/03 02:14:52;;;;;;;;;;;;;;;-0.56;100.00;97405.27;110098;1245;69868;-70
2023/02/03 02:17:42;;;;;;;;;;;;;;;-0.57;100.00;97411.27;110108;1244;68936;-71
2023/02/03 02:20:19;;;;;;;;;;;;;;;-0.60;100.00;97411.55;110147;1245;59695;-71
2023/02/03 02:23:07;;;;;;;;;;;;;;;-0.65;100.00;97408.27;110092;1245;59671;-71
2023/02/03 02:25:56;;;;;;;;;;;;;;;-0.71;100.00;97416.64;110117;1245;71238;-70
2023/02/03 02:28:46;;;;;;;;;;;;;;;-0.76;100.00;97418.52;109974;1245;69114;-70
2023/02/03 02:31:46;;;;;;;;;;;;;;;-0.81;100.00;97421.55;109825;1245;69277;-70
2023/02/03 02:34:22;;;;;;;;;;;;;;;-0.86;100.00;97428.02;109437;1254;59773;-71
2023/02/03 02:37:12;;;;;;;;;;;;;;;-0.89;100.00;97429.11;110066;1244;59699;-70
2023/02/03 02:39:52;;;;;;;;;;;;;;;-0.90;100.00;97437.55;110003;1245;70559;-70
2023/02/03 02:42:35;;;;;;;;;;;;;;;-0.91;100.00;97440.14;110114;1244;69662;-70
2023/02/03 02:45:09;;;;;;;;;;;;;;;-0.92;100.00;97441.54;110133;1244;69853;-71
2023/02/03 02:47:39;;;;;;;;;;;;;;;-0.94;100.00;97445.51;110130;1245;59683;-70
2023/02/03 02:50:15;;;;;;;;;;;;;;;-0.94;100.00;97450.63;110170;1244;59744;-70
2023/02/03 02:52:46;;;;;;;;;;;;;;;-0.93;100.00;97453.85;110214;1244;70629;-70
2023/02/03 02:55:23;;;;;;;;;;;;;;;-0.91;100.00;97459.82;110082;1244;68485;-70
2023/02/03 02:57:54;;;;;;;;;;;;;;;-0.89;100.00;97462.31;109794;1244;69725;-70
2023/02/03 03:00:24;;;;;;;;;;;;;;;-0.85;100.00;97468.38;110187;1246;59801;-70
2023/02/03 03:02:56;;;;;;;;;;;;;;;-0.81;100.00;97474.76;110143;1245;59748;-70
2023/02/03 03:05:27;;;;;;;;;;;;;;;-0.77;100.00;97475.52;110134;1244;72373;-70
2023/02/03 03:08:03;;;;;;;;;;;;;;;-0.73;100.00;97477.65;109846;1243;68367;-70
2023/02/03 03:10:33;;;;;;;;;;;;;;;-0.71;100.00;97479.98;109942;1245;67673;-70
2023/02/03 03:13:07;;;;;;;;;;;;;;;-0.70;100.00;97484.56;110150;1242;59737;-70
2023/02/03 03:15:38;;;;;;;;;;;;;;;-0.66;100.00;97488.39;110227;1244;59697;-71
2023/02/03 03:18:12;;;;;;;;;;;;;;;-0.62;100.00;97493.44;110193;1244;70431;-71
2023/02/03 03:20:43;;;;;;;;;;;;;;;-0.59;100.00;97499.85;110151;1245;69316;-70
2023/02/03 03:23:19;;;;;;;;;;;;;;;-0.56;100.00;97502.66;110094;1244;67733;-70
2023/02/03 03:25:53;;;;;;;;;;;;;;;-0.55;100.00;97502.13;110118;1244;59700;-70
2023/02/03 03:28:29;;;;;;;;;;;;;;;-0.53;100.00;97505.14;110114;1244;59663;-70
2023/02/03 03:31:01;;;;;;;;;;;;;;;-0.50;100.00;97510.75;110127;1244;70575;-70
2023/02/03 03:33:31;;;;;;;;;;;;;;;-0.48;100.00;97507.08;110130;1244;68326;-70
2023/02/03 03:36:04;;;;;;;;;;;;;;;-0.47;100.00;97506.21;110109;1243;68561;-70
2023/02/03 03:38:43;;;;;;;;;;;;;;;-0.47;100.00;97505.70;110076;1242;59758;-70
2023/02/03 03:41:17;;;;;;;;;;;;;;;-0.49;100.00;97507.29;110153;1244;59691;-70
2023/02/03 03:43:49;;;;;;;;;;;;;;;-0.51;99.98;97512.80;110108;1243;71936;-70
2023/02/03 03:46:26;;;;;;;;;;;;;;;-0.55;98.94;97513.27;110185;1244;69835;-70
2023/02/03 03:49:03;;;;;;;;;;;;;;;-0.57;98.70;97512.81;110093;1244;70419;-71
2023/02/03 03:52:02;;;;;;;;;;;;;;;-0.59;98.44;97516.28;110106;1244;59701;-70
2023/02/03 03:54:34;;;;;;;;;;;;;;;-0.59;98.25;97519.19;110106;1244;59750;-70
2023/02/03 03:57:13;;;;;;;;;;;;;;;-0.59;98.75;97519.53;110238;1244;71800;-69
2023/02/03 03:59:46;;;;;;;;;;;;;;;-0.61;98.59;97524.39;110152;1241;69136;-71
2023/02/03 04:02:17;;;;;;;;;;;;;;;-0.66;98.16;97526.05;110136;1244;69318;-70
2023/02/03 04:04:47;;;;;;;;;;;;;;;-0.69;98.22;97530.06;110202;1245;59747;-71
2023/02/03 04:07:18;;;;;;;;;;;;;;;-0.70;98.30;97538.48;110203;1243;59698;-69
2023/02/03 04:09:47;;;;;;;;;;;;;;;-0.71;98.62;97537.13;110165;1243;71441;-70
2023/02/03 04:12:23;;;;;;;;;;;;;;;-0.69;98.53;97537.27;110195;1244;69254;-70
2023/02/03 04:14:53;;;;;;;;;;;;;;;-0.72;97.73;97537.35;110128;1245;68325;-69
2023/02/03 04:17:23;;;;;;;;;;;;;;;-0.70;98.25;97541.04;110210;1244;59631;-70
2023/02/03 04:19:52;;;;;;;;;;;;;;;-0.70;98.02;97542.23;110209;1243;59739;-70
2023/02/03 04:22:21;;;;;;;;;;;;;;;-0.73;98.42;97549.86;110125;1245;70651;-70
2023/02/03 04:24:51;;;;;;;;;;;;;;;-0.74;98.02;97556.56;110127;1244;68758;-69
2023/02/03 04:27:21;;;;;;;;;;;;;;;-0.72;98.35;97556.33;110121;1244;68526;-70
2023/02/03 04:29:51;;;;;;;;;;;;;;;-0.73;98.05;97558.23;110107;1244;59715;-70
2023/02/03 04:32:21;;;;;;;;;;;;;;;-0.72;97.87;97558.39;110135;1244;60142;-70
2023/02/03 04:34:51;;;;;;;;;;;;;;;-0.73;97.46;97558.42;110211;1244;71373;-70
2023/02/03 04:37:21;;;;;;;;;;;;;;;-0.70;97.90;97559.36;110179;1244;69306;-70
2023/02/03 04:39:51;;;;;;;;;;;;;;;-0.70;98.47;97562.61;110232;1243;69202;-69
2023/02/03 04:42:20;;;;;;;;;;;;;;;-0.68;98.49;97571.31;110128;1244;59663;-70
2023/02/03 04:44:50;;;;;;;;;;;;;;;-0.67;98.07;97575.56;110138;1242;59684;-70
2023/02/03 04:47:19;;;;;;;;;;;;;;;-0.68;97.39;97573.36;110121;1244;70954;-69
2023/02/03 04:49:48;;;;;;;;;;;;;;;-0.69;97.61;97569.95;110118;1244;68472;-70
2023/02/03 04:52:18;;;;;;;;;;;;;;;-0.68;97.50;97572.85;109898;1245;69225;-70
2023/02/03 04:54:47;;;;;;;;;;;;;;;-0.69;97.66;97574.41;110118;1242;59670;-70
2023/02/03 04:57:16;;;;;;;;;;;;;;;-0.71;97.78;97574.95;110105;1244;59695;-70
2023/02/03 04:59:45;;;;;;;;;;;;;;;-0.70;97.91;97577.84;110138;1244;70647;-70
2023/02/03 05:02:15;;;;;;;;;;;;;;;-0.69;97.89;97584.67;110144;1244;69369;-69
2023/02/03 05:04:44;;;;;;;;;;;;;;;-0.68;97.20;97580.38;110135;1241;69160;-70
2023/02/03 05:07:14;;;;;;;;;;;;;;;-0.69;97.14;97591.02;110157;1243;59683;-70
2023/02/03 05:09:43;;;;;;;;;;;;;;;-0.70;97.26;97595.14;110153;1243;59637;-70
2023/02/03 05:12:12;;;;;;;;;;;;;;;-0.70;97.30;97594.45;110221;1244;72048;-70
2023/02/03 05:14:40;;;;;;;;;;;;;;;-0.70;97.12;97598.90;110169;1242;69240;-70
2023/02/03 05:17:09;;;;;;;;;;;;;;;-0.71;97.21;97604.23;110191;1240;69244;-70
2023/02/03 05:19:38;;;;;;;;;;;;;;;-0.73;96.32;97601.89;110232;1242;59807;-70
2023/02/03 05:22:07;;;;;;;;;;;;;;;-0.70;96.73;97597.20;110132;1244;59672;-70
2023/02/03 05:24:36;;;;;;;;;;;;;;;-0.74;95.98;97597.79;110114;1244;71341;-70
2023/02/03 05:27:06;;;;;;;;;;;;;;;-0.72;96.36;97599.83;110142;1243;67503;-70
2023/02/03 05:29:35;;;;;;;;;;;;;;;-0.73;95.98;97592.66;110132;1245;69681;-70
2023/02/03 05:32:04;;;;;;;;;;;;;;;-0.72;96.33;97597.06;110218;1241;59661;-70
2023/02/03 05:34:33;;;;;;;;;;;;;;;-0.69;97.25;97602.13;110116;1243;59760;-70
2023/02/03 05:37:02;;;;;;;;;;;;;;;-0.67;97.07;97606.36;110118;1244;71973;-70
2023/02/03 05:39:31;;;;;;;;;;;;;;;-0.65;97.10;97606.98;110122;1243;69175;-70
2023/02/03 05:42:02;;;;;;;;;;;;;;;-0.63;97.06;97607.47;110191;1241;69246;-70
2023/02/03 05:44:30;;;;;;;;;;;;;;;-0.66;96.77;97609.57;110159;1245;59752;-70
2023/02/03 05:47:00;;;;;;;;;;;;;;;-0.66;97.07;97614.05;110181;1243;59822;-70
2023/02/03 05:49:29;;;;;;;;;;;;;;;-0.67;97.00;97620.23;110097;1241;71441;-70
2023/02/03 05:51:57;;;;;;;;;;;;;;;-0.69;96.76;97620.97;110167;1241;69215;-69
2023/02/03 05:54:26;;;;;;;;;;;;;;;-0.69;97.07;97626.10;110235;1244;68570;-70
2023/02/03 05:56:55;;;;;;;;;;;;;;;-0.68;97.15;97629.14;110157;1241;60067;-69
2023/02/03 05:59:24;;;;;;;;;;;;;;;-0.69;96.57;97627.64;110112;1244;59646;-69
2023/02/03 06:01:52;;;;;;;;;;;;;;;-0.71;96.32;97627.85;110151;1244;71369;-69
2023/02/03 06:04:21;;;;;;;;;;;;;;;-0.71;96.42;97625.45;110226;1243;69906;-70
2023/02/03 06:06:50;;;;;;;;;;;;;;;-0.72;96.25;97627.38;110125;1245;70763;-70
2023/02/03 06:09:18;;;;;;;;;;;;;;;-0.74;96.32;97627.74;110224;1241;59747;-70
2023/02/03 06:11:47;;;;;;;;;;;;;;;-0.75;96.41;97633.24;110141;1244;59643;-70
2023/02/03 06:14:16;;;;;;;;;;;;;;;-0.75;96.39;97644.73;110208;1242;71249;-70
2023/02/03 06:16:46;;;;;;;;;;;;;;;-0.75;96.24;97646.61;110144;1243;69170;-70
2023/02/03 06:19:15;;;;;;;;;;;;;;;-0.76;95.94;97648.17;110130;1244;69861;-69
2023/02/03 06:21:44;;;;;;;;;;;;;;;-0.79;95.08;97651.98;110167;1243;59657;-71
2023/02/03 06:24:13;;;;;;;;;;;;;;;-0.76;95.28;97650.40;110141;1244;59661;-72
2023/02/03 06:26:41;;;;;;;;;;;;;;;-0.74;95.53;97650.36;110206;1241;71190;-70
2023/02/03 06:29:10;;;;;;;;;;;;;;;-0.72;95.60;97654.91;110173;1244;69839;-71
2023/02/03 06:31:39;;;;;;;;;;;;;;;-0.69;95.44;97655.36;110147;1242;67328;-69
2023/02/03 06:34:08;;;;;;;;;;;;;;;-0.65;94.75;97655.10;110106;1243;59680;-70
2023/02/03 06:36:37;;;;;;;;;;;;;;;-0.64;93.75;97654.73;110200;1243;59695;-71
2023/02/03 06:39:05;;;;;;;;;;;;;;;-0.61;93.78;97656.36;110052;1241;71287;-69
2023/02/03 06:41:35;;;;;;;;;;;;;;;-0.58;93.09;97653.55;110164;1245;69191;-69
2023/02/03 06:44:04;;;;;;;;;;;;;;;-0.54;92.69;97657.73;110095;1244;68878;-70
2023/02/03 06:46:32;;;;;;;;;;;;;;;-0.52;92.08;97654.27;110086;1244;59746;-70
2023/02/03 06:49:01;;;;;;;;;;;;;;;-0.48;92.79;97651.09;110131;1244;59685;-69
2023/02/03 06:51:31;;;;;;;;;;;;;;;-0.47;93.58;97652.77;110128;1244;71343;-69
2023/02/03 06:53:59;;;;;;;;;;;;;;;-0.50;93.19;97654.73;110212;1241;69277;-71
2023/02/03 06:56:28;;;;;;;;;;;;;;;-0.53;92.61;97663.54;110115;1244;69328;-71
2023/02/03 06:58:57;;;;;;;;;;;;;;;-0.56;92.45;97664.63;110113;1244;59753;-70
2023/02/03 07:01:28;;;;;;;;;;;;;;;-0.58;92.43;97666.91;110250;1247;60062;-70
2023/02/03 07:03:57;;;;;;;;;;;;;;;-0.59;92.64;97666.42;110148;1244;71662;-70
2023/02/03 07:06:29;;;;;;;;;;;;;;;-0.55;91.07;97671.27;110097;1241;68602;-70
2023/02/03 07:08:58;;;;;;;;;;;;;;;-0.44;91.43;97680.63;110222;1244;69268;-72
2023/02/03 07:11:29;;;;;;;;;;;;;;;-0.35;91.59;97679.88;110167;1244;59743;-70
2023/02/03 07:13:58;;;;;;;;;;;;;;;-0.25;91.94;97683.91;110241;1241;59684;-70
2023/02/03 07:16:27;;;;;;;;;;;;;;;-0.18;91.50;97687.51;110252;1241;70663;-70
2023/02/03 07:18:56;;;;;;;;;;;;;;;-0.16;90.45;97692.60;110157;1244;70189;-70
2023/02/03 07:21:25;;;;;;;;;;;;;;;-0.14;89.08;97694.59;110139;1245;69086;-70
2023/02/03 07:23:53;;;;;;;;;;;;;;;-0.14;88.33;97693.90;110164;1242;59779;-69
2023/02/03 07:26:24;;;;;;;;;;;;;;;-0.11;87.72;97691.09;110269;1241;59646;-70
2023/02/03 07:28:53;;;;;;;;;;;;;;;-0.05;88.84;97691.08;110213;1244;71823;-71
2023/02/03 07:31:22;;;;;;;;;;;;;;;-0.02;87.69;97692.56;110279;1244;69265;-71
2023/02/03 07:33:50;;;;;;;;;;;;;;;-0.09;84.97;97682.98;110302;1244;69255;-71
2023/02/03 07:36:19;;;;;;;;;;;;;;;0.04;86.32;97685.02;110383;1244;59732;-70
2023/02/03 07:38:47;;;;;;;;;;;;;;;0.17;86.97;97682.62;110205;1243;59735;-73
2023/02/03 07:41:16;;;;;;;;;;;;;;;0.08;84.36;97681.52;110257;1244;71593;-73
2023/02/03 07:43:45;;;;;;;;;;;;;;;0.07;84.25;97684.11;110280;1243;69105;-72
2023/02/03 07:46:14;;;;;;;;;;;;;;;0.13;84.74;97691.65;110242;1241;68745;-71
2023/02/03 07:48:43;;;;;;;;;;;;;;;0.14;84.19;97694.71;109696;1243;632930;-70
2023/02/03 07:51:12;;;;;;;;;;;;;;;0.15;84.33;97696.41;110178;1242;59662;-71
2023/02/03 07:53:40;;;;;;;;;;;;;;;0.11;83.63;97695.80;110115;1244;70351;-70
2023/02/03 07:56:10;;;;;;;;;;;;;;;0.11;83.59;97695.81;110142;1245;69224;-71
2023/02/03 07:58:39;;;;;;;;;;;;;;;0.14;83.29;97698.48;110094;1244;68344;-70
2023/02/03 08:01:12;;;;;;;;;;;;;;;0.20;83.50;97702.27;110229;1244;59763;-70
2023/02/03 08:03:41;;;;;;;;;;;;;;;0.21;83.31;97701.04;110115;1242;59685;-70
2023/02/03 08:06:10;;;;;;;;;;;;;;;0.25;84.06;97698.36;110126;1244;71372;-70
2023/02/03 08:08:40;;;;;;;;;;;;;;;0.27;83.80;97704.29;110137;1244;69293;-71
2023/02/03 08:11:08;;;;;;;;;;;;;;;0.22;82.71;97701.86;109939;1244;69285;-70
2023/02/03 08:13:37;;;;;;;;;;;;;;;0.22;82.34;97704.80;110109;1244;59686;-69
2023/02/03 08:16:06;;;;;;;;;;;;;;;0.29;82.74;97704.27;110104;1244;59646;-70
2023/02/03 08:18:35;;;;;;;;;;;;;;;0.31;82.89;97707.13;110136;1244;71400;-69
2023/02/03 08:21:04;;;;;;;;;;;;;;;0.25;82.32;97708.31;110082;1244;68404;-69
2023/02/03 08:23:32;;;;;;;;;;;;;;;0.28;83.31;97710.09;110131;1244;69245;-69
2023/02/03 08:26:01;;;;;;;;;;;;;;;0.29;83.32;97706.83;110107;1244;59728;-69
2023/02/03 08:28:30;;;;;;;;;;;;;;;0.27;82.47;97713.89;109982;1245;59648;-69
2023/02/03 08:30:58;;;;;;;;;;;;;;;0.26;81.90;97709.48;110128;1244;71385;-69
2023/02/03 08:33:27;;;;;;;;;;;;;;;0.15;81.20;97708.23;110122;1244;69868;-71
2023/02/03 08:35:57;;;;;;;;;;;;;;;0.21;82.39;97705.67;110125;1242;68557;-69
2023/02/03 08:38:26;;;;;;;;;;;;;;;0.30;82.67;97706.13;109952;1245;59747;-69
2023/02/03 08:40:54;;;;;;;;;;;;;;;0.43;82.37;97709.19;110140;1244;59760;-69
2023/02/03 08:43:23;;;;;;;;;;;;;;;0.54;82.48;97711.44;110123;1244;69963;-69
2023/02/03 08:45:51;;;;;;;;;;;;;;;0.62;82.61;97709.02;110116;1243;69169;-69
2023/02/03 08:48:20;;;;;;;;;;;;;;;0.65;82.42;97706.17;110070;1251;69881;-69
2023/02/03 08:50:51;;;;;;;;;;;;;;;0.67;81.70;97704.56;110097;1245;59747;-69
2023/02/03 08:53:20;;;;;;;;;;;;;;;0.67;81.08;97701.98;110188;1242;59608;-69
2023/02/03 08:55:49;;;;;;;;;;;;;;;0.69;80.40;97700.04;110119;1244;72251;-69
2023/02/03 08:58:18;;;;;;;;;;;;;;;0.71;80.09;97701.88;110135;1243;69442;-69
2023/02/03 09:00:48;;;;;;;;;;;;;;;0.74;79.87;97697.02;110113;1244;69703;-70
2023/02/03 09:03:17;;;;;;;;;;;;;;;0.65;79.19;97694.83;110100;1244;60069;-69
2023/02/03 09:05:46;;;;;;;;;;;;;;;0.56;79.54;97689.61;110115;1244;60094;-69
2023/02/03 09:08:14;;;;;;;;;;;;;;;0.67;79.98;97692.21;110112;1242;71957;-70
2023/02/03 09:10:43;;;;;;;;;;;;;;;0.74;80.13;97688.91;110092;1244;68771;-72
2023/02/03 09:13:12;;;;;;;;;;;;;;;0.85;80.05;97694.63;110039;1244;69363;-71
2023/02/03 09:15:41;;;;;;;;;;;;;;;0.89;77.82;97694.30;110083;1241;59689;-70
2023/02/03 09:18:10;;;;;;;;;;;;;;;1.04;78.17;97695.59;110101;1244;59659;-69
2023/02/03 09:20:39;;;;;;;;;;;;;;;1.15;77.72;97696.80;110146;1243;71410;-69
2023/02/03 09:23:08;;;;;;;;;;;;;;;1.30;76.81;97699.44;110102;1243;69222;-69
2023/02/03 09:25:36;;;;;;;;;;;;;;;1.39;77.24;97701.38;110119;1244;69276;-69
2023/02/03 09:28:05;;;;;;;;;;;;;;;1.45;75.58;97699.95;110066;1244;59755;-69
2023/02/03 09:30:34;;;;;;;;;;;;;;;1.46;74.07;97701.30;110112;1244;59682;-70
2023/02/03 09:33:03;;;;;;;;;;;;;;;1.55;74.99;97699.86;110170;1244;71349;-69
2023/02/03 09:35:32;;;;;;;;;;;;;;;1.61;75.82;97696.40;110127;1244;69804;-69
2023/02/03 09:38:01;;;;;;;;;;;;;;;1.63;75.05;97697.52;110134;1245;69389;-70
2023/02/03 09:40:32;;;;;;;;;;;;;;;1.62;73.98;97695.30;110100;1244;59751;-69
2023/02/03 09:43:11;;;;;;;;;;;;;;;1.71;74.94;97691.21;110105;1244;59709;-69
2023/02/03 09:45:40;;;;;;;;;;;;;;;1.80;73.71;97685.42;110082;1244;70845;-69
2023/02/03 09:48:15;;;;;;;;;;;;;;;1.77;73.32;97685.20;110120;1244;69936;-70
2023/02/03 09:50:45;;;;;;;;;;;;;;;1.76;73.54;97680.07;110120;1243;69648;-69
2023/02/03 09:53:26;;;;;;;;;;;;;;;1.73;72.61;97677.08;110089;1244;59779;-69
2023/02/03 09:55:56;;;;;;;;;;;;;;;1.67;73.64;97680.04;110084;1244;59672;-69
2023/02/03 09:58:33;;;;;;;;;;;;;;;1.67;73.55;97684.48;110117;1244;70619;-69
2023/02/03 10:01:05;;;;;;;;;;;;;;;1.60;71.94;97681.11;110113;1244;69059;-69
2023/02/03 10:03:37;;;;;;;;;;;;;;;1.46;72.04;97679.66;110038;1244;69885;-69
2023/02/03 10:06:08;;;;;;;;;;;;;;;1.45;72.64;97678.00;110114;1244;59758;-69
2023/02/03 10:08:50;;;;;;;;;;;;;;;1.38;73.60;97680.27;110083;1244;59756;-69
2023/02/03 10:11:28;;;;;;;;;;;;;;;1.33;74.09;97680.94;110067;1243;70863;-69
2023/02/03 10:14:15;;;;;;;;;;;;;;;1.30;74.39;97683.98;110102;1243;69227;-69
2023/02/03 10:16:50;;;;;;;;;;;;;;;1.32;74.26;97680.66;110085;1244;68777;-69
2023/02/03 10:19:22;;;;;;;;;;;;;;;1.31;73.87;97682.41;110075;1244;59760;-69
2023/02/03 10:21:54;;;;;;;;;;;;;;;1.20;73.37;97680.66;110091;1244;59708;-69
2023/02/03 10:24:43;;;;;;;;;;;;;;;1.22;73.32;97678.38;110130;1243;69459;-70
2023/02/03 10:27:16;;;;;;;;;;;;;;;1.22;73.11;97673.40;110212;1244;69655;-70
2023/02/03 10:29:50;;;;;;;;;;;;;;;1.31;73.75;97671.91;110269;1244;68505;-69
2023/02/03 10:32:18;;;;;;;;;;;;;;;1.36;73.49;97670.73;110203;1244;59735;-70
2023/02/03 10:34:48;;;;;;;;;;;;;;;1.26;71.66;97670.35;110177;1244;59746;-70
2023/02/03 10:37:23;;;;;;;;;;;;;;;1.36;72.15;97668.67;110130;1244;70499;-70
2023/02/03 10:39:52;;;;;;;;;;;;;;;1.41;71.75;97667.64;110135;1244;68763;-70
2023/02/03 10:42:21;;;;;;;;;;;;;;;1.51;72.76;97665.77;110096;1245;68704;-70
2023/02/03 10:44:59;;;;;;;;;;;;;;;1.50;70.71;97668.40;110091;1243;59766;-70
2023/02/03 10:47:35;;;;;;;;;;;;;;;1.54;70.67;97667.56;110109;1245;59656;-70
2023/02/03 10:50:06;;;;;;;;;;;;;;;1.46;69.82;97669.71;110131;1245;71996;-70
2023/02/03 10:52:35;;;;;;;;;;;;;;;1.49;71.17;97666.85;110099;1242;68684;-70
2023/02/03 10:55:05;;;;;;;;;;;;;;;1.42;71.27;97671.22;110096;1244;69878;-70
2023/02/03 10:57:35;;;;;;;;;;;;;;;1.48;71.39;97669.29;110116;1243;59780;-70
2023/02/03 11:00:19;;;;;;;;;;;;;;;1.56;71.54;97665.45;110098;1242;59757;-70
2023/02/03 11:03:08;;;;;;;;;;;;;;;1.62;71.89;97662.34;109854;1243;71224;-70
2023/02/03 11:05:37;;;;;;;;;;;;;;;1.65;71.36;97658.09;110119;1242;69558;-70
2023/02/03 11:08:13;;;;;;;;;;;;;;;1.71;71.24;97656.01;110084;1244;69804;-70
2023/02/03 11:10:42;;;;;;;;;;;;;;;1.87;70.60;97654.95;110111;1244;59718;-70
2023/02/03 11:13:16;;;;;;;;;;;;;;;2.15;70.79;97652.60;110112;1245;59634;-70
2023/02/03 11:15:51;;;;;;;;;;;;;;;2.32;70.34;97651.65;110094;1242;72307;-70
2023/02/03 11:18:32;;;;;;;;;;;;;;;2.36;68.72;97653.42;110118;1245;69828;-70
2023/02/03 11:21:10;;;;;;;;;;;;;;;2.41;69.88;97653.77;110067;1244;70231;-70
2023/02/03 11:23:45;;;;;;;;;;;;;;;2.40;69.64;97650.84;110070;1244;60111;-70
2023/02/03 11:26:18;;;;;;;;;;;;;;;2.27;69.39;97643.59;110192;1244;59628;-70
2023/02/03 11:28:48;;;;;;;;;;;;;;;2.25;68.39;97641.77;110133;1244;71778;-70
2023/02/03 11:31:21;;;;;;;;;;;;;;;2.41;68.50;97641.52;109886;1242;69673;-70
2023/02/03 11:33:54;;;;;;;;;;;;;;;2.56;68.69;97639.77;110120;1244;69839;-70
2023/02/03 11:36:25;;;;;;;;;;;;;;;2.55;66.09;97635.52;110116;1244;59764;-70
2023/02/03 11:39:07;;;;;;;;;;;;;;;2.67;66.27;97632.64;110088;1244;59691;-70
2023/02/03 11:41:37;;;;;;;;;;;;;;;2.68;65.81;97621.44;110155;1244;71236;-70
2023/02/03 11:44:15;;;;;;;;;;;;;;;2.39;66.53;97614.42;110105;1244;69328;-70
2023/02/03 11:46:45;;;;;;;;;;;;;;;2.76;66.81;97615.96;110096;1244;69323;-70
2023/02/03 11:49:27;;;;;;;;;;;;;;;3.38;64.84;97614.05;110124;1244;59764;-70
2023/02/03 11:52:16;;;;;;;;;;;;;;;4.05;65.58;97606.38;110161;1243;59757;-69
2023/02/03 11:55:04;;;;;;;;;;;;;;;4.36;65.67;97603.80;110108;1244;71969;-69
2023/02/03 11:57:40;;;;;;;;;;;;;;;4.27;61.51;97602.64;110137;1242;69631;-69
2023/02/03 12:00:18;;;;;;;;;;;;;;;4.02;61.59;97593.73;110117;1244;67345;-70
2023/02/03 12:02:53;;;;;;;;;;;;;;;4.24;61.84;97594.32;110103;1243;59670;-70
2023/02/03 12:05:42;;;;;;;;;;;;;;;5.05;59.21;97591.10;110132;1243;59746;-70
2023/02/03 12:08:11;;;;;;;;;;;;;;;6.62;56.83;97585.88;109983;1243;72088;-70
2023/02/03 12:10:46;;;;;;;;;;;;;;;7.99;51.57;97576.53;110095;1244;67822;-70
2023/02/03 12:13:33;;;;;;;;;;;;;;;9.26;49.77;97571.30;110085;1244;69273;-70
2023/02/03 12:16:11;;;;;;;;;;;;;;;9.86;49.09;97564.70;110161;1244;59754;-70
2023/02/03 12:18:45;;;;;;;;;;;;;;;10.53;45.76;97560.98;110085;1244;59682;-71
2023/02/03 12:21:22;;;;;;;;;;;;;;;10.37;43.74;97555.98;110134;1243;71180;-71
2023/02/03 12:24:10;;;;;;;;;;;;;;;9.25;45.43;97548.05;110044;1244;69399;-71
2023/02/03 12:26:44;;;;;;;;;;;;;;;10.03;44.66;97552.25;110115;1243;69283;-70
2023/02/03 12:29:16;;;;;;;;;;;;;;;10.62;43.53;97553.60;110214;1244;59695;-69
2023/02/03 12:31:49;;;;;;;;;;;;;;;10.53;44.46;97558.73;110125;1244;59599;-70
2023/02/03 12:34:28;;;;;;;;;;;;;;;10.72;43.53;97556.91;110050;1243;71749;-70
2023/02/03 12:37:01;;;;;;;;;;;;;;;10.15;43.91;97551.95;110096;1244;69904;-70
2023/02/03 12:39:30;;;;;;;;;;;;;;;9.79;44.47;97551.45;110098;1245;69166;-69
2023/02/03 12:42:09;;;;;;;;;;;;;;;9.26;45.13;97547.79;110119;1244;59681;-69
2023/02/03 12:44:43;;;;;;;;;;;;;;;9.14;45.72;97546.14;110102;1244;59633;-70
2023/02/03 12:47:17;;;;;;;;;;;;;;;9.44;45.61;97547.33;110122;1244;71267;-70
2023/02/03 12:49:52;;;;;;;;;;;;;;;9.98;45.01;97551.20;110108;1244;69825;-69
2023/02/03 12:52:25;;;;;;;;;;;;;;;10.36;43.87;97545.27;110101;1244;69339;-69
2023/02/03 12:54:54;;;;;;;;;;;;;;;10.72;42.88;97539.81;110085;1244;59747;-69
2023/02/03 12:57:36;;;;;;;;;;;;;;;10.60;42.45;97534.37;110113;1244;59679;-69
2023/02/03 13:00:08;;;;;;;;;;;;;;;10.55;44.34;97527.58;110106;1244;72049;-69
2023/02/03 13:03:00;;;;;;;;;;;;;;;9.79;43.31;97523.79;110093;1242;68559;-69